createdAt,value
2018-07-07T08:22:29.256Z,2.00
2018-07-07T08:24:59.120Z,1.80
2018-07-07T08:27:29.639Z,1.40
2018-07-07T08:29:58.673Z,3.00
2018-07-07T08:32:35.305Z,1.40
2018-07-07T08:35:11.010Z,2.00
2018-07-07T08:37:39.710Z,2.00
2018-07-07T08:40:11.990Z,2.00
2018-07-07T08:42:44.590Z,2.00
2018-07-07T08:45:12.350Z,2.20
2018-07-07T08:47:42.774Z,2.00
2018-07-07T08:50:12.242Z,4.80
2018-07-07T08:52:43.109Z,3.60
2018-07-07T08:55:19.279Z,2.40
2018-07-07T08:57:50.190Z,3.60
2018-07-07T09:00:20.783Z,3.00
2018-07-07T09:02:49.074Z,5.00
2018-07-07T09:05:18.748Z,6.00
2018-07-07T09:07:47.491Z,7.00
2018-07-07T09:10:17.726Z,6.40
2018-07-07T09:12:46.218Z,6.60
2018-07-07T09:15:15.039Z,8.00
2018-07-07T09:17:53.290Z,6.60
2018-07-07T09:20:22.409Z,4.00
2018-07-07T09:22:53.620Z,3.80
2018-07-07T09:25:27.571Z,4.00
2018-07-07T09:28:04.339Z,3.00
2018-07-07T09:30:39.505Z,4.00
2018-07-07T09:33:10.549Z,4.20
2018-07-07T09:38:19.387Z,3.60
2018-07-07T09:40:48.827Z,3.60
2018-07-07T09:43:18.698Z,6.00
2018-07-07T09:45:53.096Z,6.00
2018-07-07T09:48:20.809Z,3.80
2018-07-07T09:50:49.330Z,6.60
2018-07-07T09:53:19.274Z,6.80
2018-07-07T09:58:44.139Z,6.80
2018-07-07T10:01:15.596Z,6.00
2018-07-07T10:03:43.665Z,8.00
2018-07-07T10:06:17.807Z,6.80
2018-07-07T10:08:45.771Z,7.60
2018-07-07T10:11:14.231Z,6.00
2018-07-07T10:13:42.398Z,7.00
2018-07-07T10:16:10.841Z,5.80
2018-07-07T10:18:38.614Z,7.00
2018-07-07T10:21:07.318Z,7.80
2018-07-07T10:23:35.148Z,5.40
2018-07-07T10:26:04.790Z,5.20
2018-07-07T10:31:05.007Z,7.00
2018-07-07T10:33:35.719Z,7.00
2018-07-07T10:36:04.796Z,5.80
2018-07-07T10:38:33.721Z,7.00
2018-07-07T10:41:06.854Z,7.40
2018-07-07T10:43:34.776Z,7.60
2018-07-07T10:46:04.594Z,8.00
2018-07-07T10:48:38.304Z,8.00
2018-07-07T10:51:08.564Z,6.20
2018-07-07T10:53:37.308Z,4.80
2018-07-07T10:56:06.182Z,7.60
2018-07-07T10:58:35.414Z,7.20
2018-07-07T11:01:03.231Z,7.60
2018-07-07T11:03:31.468Z,5.60
2018-07-07T11:05:59.342Z,8.20
2018-07-07T11:08:27.098Z,8.00
2018-07-07T11:10:58.945Z,6.20
2018-07-07T11:13:26.667Z,8.40
2018-07-07T11:15:54.439Z,3.80
2018-07-07T11:18:23.946Z,5.80
2018-07-07T11:20:52.735Z,6.20
2018-07-07T11:23:20.832Z,6.20
2018-07-07T11:25:51.322Z,3.00
2018-07-07T11:28:19.312Z,5.00
2018-07-07T11:30:50.728Z,4.20
2018-07-07T11:33:18.770Z,4.60
2018-07-07T11:35:47.179Z,6.40
2018-07-07T11:38:15.486Z,5.40
2018-07-07T11:40:43.719Z,5.80
2018-07-07T11:43:11.903Z,6.00
2018-07-07T11:45:39.674Z,5.60
2018-07-07T11:48:07.694Z,5.00
2018-07-07T11:50:36.133Z,5.60
2018-07-07T11:53:04.751Z,5.00
2018-07-07T11:55:32.835Z,5.40
2018-07-07T11:58:01.570Z,7.00
2018-07-07T12:00:32.690Z,7.00
2018-07-07T12:03:01.937Z,5.60
2018-07-07T12:05:31.105Z,6.00
2018-07-07T12:10:29.657Z,6.60
2018-07-07T12:12:57.701Z,6.20
2018-07-07T12:15:25.652Z,7.00
2018-07-07T12:17:54.518Z,6.80
2018-07-07T12:20:22.301Z,5.00
2018-07-07T12:22:53.120Z,5.80
2018-07-07T12:25:24.488Z,7.00
2018-07-07T12:27:52.242Z,6.80
2018-07-07T12:30:20.767Z,5.00
2018-07-07T12:32:49.751Z,5.00
2018-07-07T12:35:17.558Z,5.20
2018-07-07T12:37:47.035Z,5.00
2018-07-07T12:40:15.075Z,5.00
2018-07-07T12:42:42.820Z,5.60
2018-07-07T12:45:10.566Z,6.00
2018-07-07T12:47:40.529Z,5.00
2018-07-07T12:50:08.295Z,5.00
2018-07-07T12:52:36.087Z,5.00
2018-07-07T12:55:08.494Z,5.20
2018-07-07T12:57:39.624Z,6.40
2018-07-07T13:00:07.392Z,6.00
2018-07-07T13:02:39.356Z,6.20
2018-07-07T13:05:08.901Z,4.00
2018-07-07T13:07:36.648Z,4.00
2018-07-07T13:10:04.767Z,6.80
2018-07-07T13:12:32.963Z,4.20
2018-07-07T13:15:00.788Z,5.20
2018-07-07T13:17:29.855Z,4.60
2018-07-07T13:20:00.708Z,4.60
2018-07-07T13:22:28.730Z,4.00
2018-07-07T13:24:56.741Z,6.00
2018-07-07T13:27:26.189Z,5.00
2018-07-07T13:29:55.237Z,4.00
2018-07-07T13:32:28.536Z,6.00
2018-07-07T13:34:56.536Z,3.80
2018-07-07T13:37:29.175Z,4.80
2018-07-07T13:39:58.609Z,4.60
2018-07-07T13:42:29.482Z,5.80
2018-07-07T13:44:57.219Z,5.40
2018-07-07T13:47:25.528Z,3.80
2018-07-07T13:49:53.456Z,6.00
2018-07-07T13:52:21.839Z,4.80
2018-07-07T13:54:51.438Z,6.00
2018-07-07T13:57:20.368Z,5.60
2018-07-07T13:59:50.110Z,4.00
2018-07-07T14:02:19.517Z,4.60
2018-07-07T14:04:47.376Z,5.00
2018-07-07T14:07:20.504Z,3.60
2018-07-07T14:09:49.253Z,5.00
2018-07-07T14:12:17.699Z,6.00
2018-07-07T14:14:47.160Z,4.60
2018-07-07T14:17:16.345Z,5.00
2018-07-07T14:19:44.378Z,6.40
2018-07-07T14:22:12.452Z,6.00
2018-07-07T14:24:42.743Z,4.00
2018-07-07T14:27:10.717Z,4.00
2018-07-07T14:29:38.866Z,4.00
2018-07-07T14:32:07.990Z,5.00
2018-07-07T14:34:37.238Z,5.80
2018-07-07T14:37:05.772Z,6.60
2018-07-07T14:39:36.157Z,5.00
2018-07-07T14:42:04.943Z,5.60
2018-07-07T14:44:32.915Z,5.80
2018-07-07T14:47:01.066Z,6.60
2018-07-07T14:49:28.851Z,5.00
2018-07-07T14:51:58.123Z,5.20
2018-07-07T14:54:27.180Z,6.00
2018-07-07T14:56:54.993Z,6.60
2018-07-07T14:59:22.820Z,5.20
2018-07-07T15:01:51.923Z,6.00
2018-07-07T15:04:19.682Z,5.80
2018-07-07T15:06:51.235Z,4.00
2018-07-07T15:09:23.517Z,5.20
2018-07-07T15:11:56.320Z,5.00
2018-07-07T15:14:24.247Z,3.20
2018-07-07T15:16:53.077Z,3.00
2018-07-07T15:19:21.858Z,5.40
2018-07-07T15:21:49.828Z,4.00
2018-07-07T15:24:18.006Z,5.20
2018-07-07T15:26:48.697Z,5.00
2018-07-07T15:29:16.612Z,4.40
2018-07-07T15:31:44.786Z,5.00
2018-07-07T15:34:13.241Z,4.00
2018-07-07T15:36:41.356Z,6.40
2018-07-07T15:39:10.060Z,4.60
2018-07-07T15:41:38.888Z,5.80
2018-07-07T15:44:07.048Z,4.80
2018-07-07T15:46:35.539Z,4.00
2018-07-07T15:49:05.332Z,5.00
2018-07-07T15:51:33.740Z,4.60
2018-07-07T15:54:02.147Z,4.00
2018-07-07T15:56:29.953Z,4.60
2018-07-07T15:58:57.707Z,4.80
2018-07-07T16:01:28.434Z,4.40
2018-07-07T16:03:56.528Z,5.20
2018-07-07T16:06:26.491Z,5.00
2018-07-07T16:08:55.637Z,5.00
2018-07-07T16:11:24.195Z,4.40
2018-07-07T16:13:52.071Z,4.80
2018-07-07T16:16:23.695Z,6.00
2018-07-07T16:18:53.492Z,5.60
2018-07-07T16:21:22.211Z,5.00
2018-07-07T16:23:49.986Z,4.40
2018-07-07T16:26:18.422Z,4.80
2018-07-07T16:28:47.317Z,5.00
2018-07-07T16:31:17.437Z,4.00
2018-07-07T16:33:48.422Z,3.40
2018-07-07T16:36:16.833Z,4.00
2018-07-07T16:38:44.610Z,4.00
2018-07-07T16:41:13.887Z,5.40
2018-07-07T16:43:43.897Z,3.60
2018-07-07T16:46:11.822Z,5.00
2018-07-07T16:48:39.672Z,4.80
2018-07-07T16:51:13.703Z,4.40
2018-07-07T16:53:41.493Z,4.00
2018-07-07T16:56:09.265Z,5.00
2018-07-07T16:58:38.431Z,3.80
2018-07-07T17:01:07.789Z,5.00
2018-07-07T17:03:36.488Z,4.00
2018-07-07T17:06:09.661Z,4.80
2018-07-07T17:08:38.043Z,4.00
2018-07-07T17:11:06.846Z,5.00
2018-07-07T17:13:38.174Z,5.00
2018-07-07T17:16:08.652Z,4.00
2018-07-07T17:18:38.985Z,4.80
2018-07-07T17:21:08.444Z,4.00
2018-07-07T17:23:36.489Z,3.80
2018-07-07T17:26:05.149Z,4.60
2018-07-07T17:28:33.828Z,5.00
2018-07-07T17:31:02.756Z,4.40
2018-07-07T17:33:30.710Z,4.20
2018-07-07T17:35:59.201Z,4.00
2018-07-07T17:38:27.274Z,5.20
2018-07-07T17:40:57.282Z,4.80
2018-07-07T17:43:25.786Z,5.00
2018-07-07T17:45:55.511Z,3.20
2018-07-07T17:48:23.412Z,3.20
2018-07-07T17:50:53.558Z,2.40
2018-07-07T17:53:24.120Z,4.00
2018-07-07T17:55:52.398Z,5.00
2018-07-07T17:58:20.951Z,4.60
2018-07-07T18:00:49.256Z,3.60
2018-07-07T18:03:18.151Z,4.80
2018-07-07T18:05:48.491Z,3.80
2018-07-07T18:08:16.517Z,4.00
2018-07-07T18:10:46.252Z,4.00
2018-07-07T18:15:58.454Z,4.20
2018-07-07T18:18:29.059Z,4.00
2018-07-07T18:20:59.176Z,3.40
2018-07-07T18:23:27.838Z,4.00
2018-07-07T18:25:55.744Z,5.00
2018-07-07T18:28:25.252Z,3.80
2018-07-07T18:30:54.003Z,4.00
2018-07-07T18:33:22.867Z,4.80
2018-07-07T18:35:52.047Z,4.00
2018-07-07T18:38:20.564Z,3.40
2018-07-07T18:40:49.950Z,4.00
2018-07-07T18:43:21.052Z,3.20
2018-07-07T18:45:50.173Z,4.00
2018-07-07T18:48:20.321Z,3.80
2018-07-07T18:50:48.944Z,3.40
2018-07-07T18:53:17.721Z,3.60
2018-07-07T18:55:47.299Z,4.40
2018-07-07T18:58:15.708Z,4.60
2018-07-07T19:00:45.110Z,3.60
2018-07-07T19:03:14.014Z,3.60
2018-07-07T19:05:44.106Z,3.00
2018-07-07T19:08:13.722Z,4.00
2018-07-07T19:10:43.314Z,3.60
2018-07-07T19:13:14.777Z,3.00
2018-07-07T19:15:47.631Z,3.40
2018-07-07T19:18:18.844Z,3.00
2018-07-07T19:20:53.962Z,5.00
2018-07-07T19:23:28.030Z,4.20
2018-07-07T19:26:01.912Z,4.00
2018-07-07T19:28:30.420Z,4.00
2018-07-07T19:30:59.427Z,3.20
2018-07-07T19:37:09.654Z,3.00
2018-07-07T19:39:44.129Z,3.60
2018-07-07T19:42:13.867Z,4.00
2018-07-07T19:44:41.949Z,3.20
2018-07-07T19:47:10.817Z,4.00
2018-07-07T19:49:40.139Z,3.40
2018-07-07T19:52:09.366Z,3.80
2018-07-07T19:54:38.510Z,4.00
2018-07-07T19:57:06.995Z,3.00
2018-07-07T19:59:37.143Z,5.20
2018-07-07T20:02:09.936Z,3.40
2018-07-07T20:04:38.588Z,4.00
2018-07-07T20:07:07.210Z,4.00
2018-07-07T20:09:37.190Z,4.00
2018-07-07T20:12:07.125Z,3.60
2018-07-07T20:14:35.802Z,4.00
2018-07-07T20:17:07.010Z,3.60
2018-07-07T20:19:40.098Z,5.00
2018-07-07T20:22:19.141Z,5.20
2018-07-07T20:24:48.739Z,4.40
2018-07-07T20:27:23.621Z,5.20
2018-07-07T20:29:54.942Z,6.20
2018-07-07T20:32:28.267Z,5.20
2018-07-07T20:34:57.126Z,4.80
2018-07-07T20:37:25.715Z,4.60
2018-07-07T20:39:54.861Z,6.00
2018-07-07T20:42:23.843Z,4.00
2018-07-07T20:44:52.498Z,3.20
2018-07-07T20:47:21.025Z,4.00
2018-07-07T20:49:50.776Z,3.40
2018-07-07T20:52:19.960Z,3.00
2018-07-07T20:54:50.700Z,4.00
2018-07-07T20:57:19.745Z,3.00
2018-07-07T20:59:53.435Z,6.00
2018-07-07T21:02:23.958Z,2.00
2018-07-07T21:04:53.133Z,3.00
2018-07-07T21:07:22.678Z,2.20
2018-07-07T21:09:53.144Z,3.20
2018-07-07T21:12:22.390Z,2.00
2018-07-07T21:14:51.261Z,2.40
2018-07-07T21:17:22.421Z,3.00
2018-07-07T21:19:52.470Z,3.00
2018-07-07T21:22:20.459Z,3.00
2018-07-07T21:24:51.333Z,4.20
2018-07-07T21:27:20.647Z,3.00
2018-07-07T21:29:50.294Z,3.80
2018-07-07T21:32:18.724Z,3.00
2018-07-07T21:34:50.697Z,3.00
2018-07-07T21:37:20.078Z,3.00
2018-07-07T21:42:35.263Z,0.80
2018-07-07T21:45:04.761Z,4.60
2018-07-07T21:47:32.906Z,2.80
2018-07-07T21:50:02.073Z,3.00
2018-07-07T21:52:31.044Z,1.20
2018-07-07T21:54:59.737Z,2.80
2018-07-07T21:57:34.343Z,2.60
2018-07-07T22:00:02.349Z,3.00
2018-07-07T22:02:35.700Z,3.80
2018-07-07T22:05:10.105Z,2.60
2018-07-07T22:07:40.759Z,2.80
2018-07-07T22:10:09.940Z,2.00
2018-07-07T22:12:37.664Z,3.00
2018-07-07T22:15:07.299Z,5.00
2018-07-07T22:17:36.324Z,3.00
2018-07-07T22:20:04.220Z,3.00
2018-07-07T22:22:32.928Z,3.00
2018-07-07T22:25:00.831Z,4.60
2018-07-07T22:27:29.261Z,4.20
2018-07-07T22:29:57.354Z,5.00
2018-07-07T22:32:25.945Z,2.20
2018-07-07T22:34:54.904Z,3.00
2018-07-07T22:37:22.981Z,3.00
2018-07-07T22:39:50.726Z,2.20
2018-07-07T22:42:20.723Z,2.80
2018-07-07T22:44:49.774Z,2.60
2018-07-07T22:47:18.108Z,3.20
2018-07-07T22:49:46.618Z,2.60
2018-07-07T22:52:15.816Z,3.00
2018-07-07T22:54:43.567Z,2.20
2018-07-07T22:57:18.231Z,5.00
2018-07-07T22:59:46.999Z,2.20
2018-07-07T23:02:14.737Z,3.20
2018-07-07T23:04:42.552Z,3.00
2018-07-07T23:07:13.536Z,2.00
2018-07-07T23:09:41.350Z,3.20
2018-07-07T23:12:09.183Z,3.00
2018-07-07T23:14:37.199Z,4.20
2018-07-07T23:17:06.540Z,5.60
2018-07-07T23:19:35.171Z,2.00
2018-07-07T23:22:03.179Z,2.80
2018-07-07T23:24:31.656Z,3.20
2018-07-07T23:26:59.379Z,3.00
2018-07-07T23:29:28.426Z,4.00
2018-07-07T23:31:57.648Z,4.00
2018-07-07T23:34:25.417Z,4.00
2018-07-07T23:36:53.645Z,4.60
2018-07-07T23:39:21.991Z,4.40
2018-07-07T23:41:50.664Z,4.00
2018-07-07T23:44:18.715Z,4.80
2018-07-07T23:46:46.522Z,4.60
2018-07-07T23:49:15.278Z,3.80
2018-07-07T23:51:47.715Z,4.40
2018-07-07T23:54:17.288Z,4.60
2018-07-07T23:56:45.038Z,2.60
2018-07-07T23:59:13.072Z,4.20
